Time;durP1;ratioP1;P1;durP2;ratioP2;P2;SDS_P1;SDS_P2;PMS_P1;PMS_P2;Temp;Humidity;BMP_temperature;BMP_pressure;BME280_temperature;BME280_humidity;BME280_pressure;Samples;Min_cycle;Max_cycle;Signal;HPM_P1;HPM_P2
2021/10/10 00:01:32;;;;;;;32.20;24.88;;;;;;;;;;5051802;28;20128;-60
2021/10/10 00:04:18;;;;;;;39.17;27.88;;;;;;;;;;5051344;28;20048;-60
2021/10/10 00:07:03;;;;;;;34.75;26.60;;;;;;;;;;5051653;28;20053;-61
2021/10/10 00:09:48;;;;;;;37.88;30.17;;;;;;;;;;5051774;28;20103;-60
2021/10/10 00:12:34;;;;;;;41.40;29.92;;;;;;;;;;5055381;28;20057;-60
2021/10/10 00:15:19;;;;;;;41.08;28.42;;;;;;;;;;5055020;28;20498;-60
2021/10/10 00:18:04;;;;;;;42.47;28.00;;;;;;;;;;5055361;28;20044;-60
2021/10/10 00:20:50;;;;;;;42.17;29.42;;;;;;;;;;5055318;28;20053;-61
2021/10/10 00:23:35;;;;;;;41.15;29.55;;;;;;;;;;5055250;28;20080;-60
2021/10/10 00:26:20;;;;;;;40.80;29.77;;;;;;;;;;5035218;28;20486;-60
2021/10/10 00:29:05;;;;;;;42.15;30.33;;;;;;;;;;5035127;28;20045;-60
2021/10/10 00:31:51;;;;;;;41.08;29.13;;;;;;;;;;5035325;28;20058;-60
2021/10/10 00:34:36;;;;;;;50.97;32.63;;;;;;;;;;5039527;28;20045;-61
2021/10/10 00:37:21;;;;;;;48.25;32.58;;;;;;;;;;5054889;28;20053;-60
2021/10/10 00:40:07;;;;;;;51.92;33.58;;;;;;;;;;5055344;28;20045;-60
2021/10/10 00:42:52;;;;;;;52.15;32.75;;;;;;;;;;5055036;28;20049;-60
2021/10/10 00:45:38;;;;;;;43.53;32.42;;;;;;;;;;5054374;28;20049;-61
2021/10/10 00:48:23;;;;;;;44.08;31.73;;;;;;;;;;5054830;28;20133;-60
2021/10/10 00:51:08;;;;;;;42.15;29.08;;;;;;;;;;5054963;28;20065;-60
2021/10/10 00:53:54;;;;;;;41.13;28.27;;;;;;;;;;5054466;28;20049;-60
2021/10/10 00:56:39;;;;;;;33.28;26.15;;;;;;;;;;5053382;28;20499;-60
2021/10/10 00:59:24;;;;;;;36.00;26.15;;;;;;;;;;5053782;28;20048;-60
2021/10/10 01:02:09;;;;;;;34.75;24.42;;;;;;;;;;5054625;28;20049;-60
2021/10/10 01:04:55;;;;;;;29.67;23.38;;;;;;;;;;5054393;28;20052;-60
2021/10/10 01:07:40;;;;;;;34.25;24.40;;;;;;;;;;5034621;28;20120;-62
2021/10/10 01:10:26;;;;;;;35.28;23.70;;;;;;;;;;5034584;28;20423;-61
2021/10/10 01:13:11;;;;;;;33.83;24.60;;;;;;;;;;5034538;28;20061;-62
2021/10/10 01:15:56;;;;;;;31.95;21.85;;;;;;;;;;5038512;28;20049;-63
2021/10/10 01:18:41;;;;;;;32.60;23.23;;;;;;;;;;5054218;28;20072;-62
2021/10/10 01:21:27;;;;;;;31.45;22.38;;;;;;;;;;5053358;28;20081;-62
2021/10/10 01:24:12;;;;;;;31.05;23.30;;;;;;;;;;5054033;28;20044;-62
2021/10/10 01:26:57;;;;;;;31.17;22.60;;;;;;;;;;5053992;28;20041;-62
2021/10/10 01:29:43;;;;;;;39.95;28.02;;;;;;;;;;5054072;28;20053;-63
2021/10/10 01:32:28;;;;;;;32.88;24.77;;;;;;;;;;5054440;28;20053;-62
2021/10/10 01:35:13;;;;;;;35.28;26.48;;;;;;;;;;5053899;28;20053;-62
2021/10/10 01:37:59;;;;;;;33.55;24.98;;;;;;;;;;5053652;28;20060;-62
2021/10/10 01:40:45;;;;;;;39.10;27.88;;;;;;;;;;5053798;28;20507;-62
2021/10/10 01:43:30;;;;;;;40.05;27.70;;;;;;;;;;5053701;28;20049;-62
2021/10/10 01:46:16;;;;;;;37.15;25.52;;;;;;;;;;5053804;28;20053;-62
2021/10/10 01:49:01;;;;;;;39.33;30.25;;;;;;;;;;5033760;28;20057;-61
2021/10/10 01:51:47;;;;;;;40.58;30.30;;;;;;;;;;5033830;28;20118;-62
2021/10/10 01:54:32;;;;;;;38.28;28.50;;;;;;;;;;5033216;28;20124;-62
2021/10/10 01:57:18;;;;;;;40.42;27.10;;;;;;;;;;5037397;28;20045;-62
2021/10/10 02:00:05;;;;;;;34.00;25.48;;;;;;;;;;5053756;28;20049;-62
2021/10/10 02:02:57;;;;;;;37.40;26.70;;;;;;;;;;5053725;28;20045;-62
2021/10/10 02:05:42;;;;;;;34.72;24.83;;;;;;;;;;5053188;28;20506;-62
2021/10/10 02:08:28;;;;;;;34.08;24.00;;;;;;;;;;5052985;28;20120;-62
2021/10/10 02:11:14;;;;;;;39.15;26.83;;;;;;;;;;5053304;28;20056;-63
2021/10/10 02:13:59;;;;;;;28.80;22.23;;;;;;;;;;5053097;28;20128;-63
2021/10/10 02:16:44;;;;;;;38.88;28.25;;;;;;;;;;5053072;28;20068;-62
2021/10/10 02:19:30;;;;;;;40.45;28.27;;;;;;;;;;5053107;28;20049;-63
2021/10/10 02:22:15;;;;;;;42.40;27.08;;;;;;;;;;5052944;28;20556;-62
2021/10/10 02:25:00;;;;;;;30.50;24.50;;;;;;;;;;5052981;28;20045;-62
2021/10/10 02:27:46;;;;;;;37.97;24.05;;;;;;;;;;5052663;28;20649;-62
2021/10/10 02:30:31;;;;;;;37.58;27.23;;;;;;;;;;5053115;28;20415;-61
2021/10/10 02:33:17;;;;;;;41.47;27.92;;;;;;;;;;5052881;28;20057;-62
2021/10/10 02:36:02;;;;;;;41.97;27.55;;;;;;;;;;5052781;28;20061;-61
2021/10/10 02:38:47;;;;;;;40.42;28.83;;;;;;;;;;5033597;28;20408;-62
2021/10/10 02:41:33;;;;;;;44.13;30.05;;;;;;;;;;5052842;28;20053;-62
2021/10/10 02:44:18;;;;;;;42.05;29.13;;;;;;;;;;5052556;28;20419;-62
2021/10/10 02:47:03;;;;;;;45.25;30.60;;;;;;;;;;5052253;28;20049;-62
2021/10/10 02:49:49;;;;;;;45.45;30.75;;;;;;;;;;5052646;28;20049;-62
2021/10/10 02:52:34;;;;;;;42.20;30.00;;;;;;;;;;5052348;28;20045;-62
2021/10/10 02:55:19;;;;;;;44.40;31.67;;;;;;;;;;5052034;28;20053;-62
2021/10/10 02:58:04;;;;;;;45.15;31.35;;;;;;;;;;5052327;28;20045;-62
2021/10/10 03:00:50;;;;;;;42.92;31.60;;;;;;;;;;5051665;28;20052;-62
2021/10/10 03:03:35;;;;;;;45.28;30.75;;;;;;;;;;5050830;28;20091;-62
2021/10/10 03:06:20;;;;;;;47.35;31.77;;;;;;;;;;5052196;28;20163;-62
2021/10/10 03:09:06;;;;;;;41.90;29.30;;;;;;;;;;5052058;28;20086;-62
2021/10/10 03:11:51;;;;;;;50.05;33.15;;;;;;;;;;5052091;28;20048;-62
2021/10/10 03:14:36;;;;;;;44.78;31.92;;;;;;;;;;5052129;28;20049;-62
2021/10/10 03:17:22;;;;;;;49.03;33.78;;;;;;;;;;5051975;28;20128;-62
2021/10/10 03:20:07;;;;;;;54.85;35.58;;;;;;;;;;5052236;28;20053;-63
2021/10/10 03:22:52;;;;;;;59.85;38.17;;;;;;;;;;5052136;28;20419;-62
2021/10/10 03:25:37;;;;;;;52.65;35.13;;;;;;;;;;5051947;28;20057;-62
2021/10/10 03:28:23;;;;;;;58.08;35.08;;;;;;;;;;5051546;28;20061;-62
2021/10/10 03:31:08;;;;;;;52.72;36.72;;;;;;;;;;5050692;28;20053;-62
2021/10/10 03:33:53;;;;;;;53.83;34.13;;;;;;;;;;5051796;28;20435;-62
2021/10/10 03:36:39;;;;;;;61.97;38.83;;;;;;;;;;5051700;28;20053;-62
2021/10/10 03:39:24;;;;;;;52.40;35.03;;;;;;;;;;5051788;28;20049;-63
2021/10/10 03:42:09;;;;;;;46.65;30.48;;;;;;;;;;5052089;28;20527;-62
2021/10/10 03:44:54;;;;;;;59.28;36.35;;;;;;;;;;5052339;28;20056;-63
2021/10/10 03:47:41;;;;;;;57.67;35.90;;;;;;;;;;5056351;28;20544;-62
2021/10/10 03:50:26;;;;;;;59.03;35.97;;;;;;;;;;5055696;28;20129;-62
2021/10/10 03:53:11;;;;;;;67.03;38.65;;;;;;;;;;5056268;28;20052;-62
2021/10/10 03:55:57;;;;;;;69.35;42.25;;;;;;;;;;5055893;28;20053;-63
2021/10/10 03:58:42;;;;;;;61.92;38.83;;;;;;;;;;5056128;28;20096;-63
2021/10/10 04:01:28;;;;;;;58.22;36.63;;;;;;;;;;5055923;28;20120;-63
2021/10/10 04:04:13;;;;;;;69.72;40.35;;;;;;;;;;5055360;28;20503;-63
2021/10/10 04:06:59;;;;;;;55.55;35.47;;;;;;;;;;5056010;28;20068;-62
2021/10/10 04:09:44;;;;;;;53.00;32.83;;;;;;;;;;5055425;28;20053;-61
2021/10/10 04:12:29;;;;;;;58.70;35.58;;;;;;;;;;5055652;28;20484;-63
2021/10/10 04:15:15;;;;;;;59.72;36.00;;;;;;;;;;5055259;28;20052;-62
2021/10/10 04:18:00;;;;;;;48.35;30.42;;;;;;;;;;5055426;28;20053;-61
2021/10/10 04:20:45;;;;;;;61.60;38.58;;;;;;;;;;5055080;28;20045;-63
2021/10/10 04:23:31;;;;;;;66.88;40.45;;;;;;;;;;5055043;28;20499;-63
2021/10/10 04:26:17;;;;;;;81.60;46.15;;;;;;;;;;5055483;28;20057;-62
2021/10/10 04:29:02;;;;;;;70.47;42.97;;;;;;;;;;5055381;28;20057;-63
2021/10/10 04:31:47;;;;;;;70.45;43.63;;;;;;;;;;5055217;28;20057;-63
2021/10/10 04:34:33;;;;;;;60.22;39.53;;;;;;;;;;5054877;28;20077;-62
2021/10/10 04:37:18;;;;;;;51.05;35.03;;;;;;;;;;5054963;28;20053;-62
2021/10/10 04:40:04;;;;;;;49.28;33.20;;;;;;;;;;5055416;28;20057;-62
2021/10/10 04:42:49;;;;;;;49.80;31.77;;;;;;;;;;5055259;28;20465;-62
2021/10/10 04:45:35;;;;;;;54.60;34.50;;;;;;;;;;5054777;28;20049;-61
2021/10/10 04:48:20;;;;;;;59.05;34.33;;;;;;;;;;5055285;28;20057;-63
2021/10/10 04:51:06;;;;;;;71.43;40.13;;;;;;;;;;5054692;28;20218;-63
2021/10/10 04:53:51;;;;;;;58.15;34.60;;;;;;;;;;5054651;28;20052;-62
2021/10/10 04:56:36;;;;;;;75.10;41.65;;;;;;;;;;5055180;28;20415;-62
2021/10/10 04:59:22;;;;;;;64.22;37.88;;;;;;;;;;5054834;28;20053;-62
2021/10/10 05:02:07;;;;;;;52.75;34.13;;;;;;;;;;5054778;28;20053;-62
2021/10/10 05:04:53;;;;;;;74.13;41.35;;;;;;;;;;5054646;28;20061;-63
2021/10/10 05:07:38;;;;;;;56.28;35.47;;;;;;;;;;5054727;28;20049;-62
2021/10/10 05:10:23;;;;;;;70.80;41.97;;;;;;;;;;5054504;28;20067;-62
2021/10/10 05:13:09;;;;;;;62.50;41.22;;;;;;;;;;5054421;28;20053;-62
2021/10/10 05:15:54;;;;;;;60.95;40.22;;;;;;;;;;5054230;28;20395;-63
2021/10/10 05:18:39;;;;;;;62.95;39.63;;;;;;;;;;5054590;28;20119;-63
2021/10/10 05:21:24;;;;;;;66.53;40.13;;;;;;;;;;5054617;28;20057;-63
2021/10/10 05:24:10;;;;;;;53.05;35.08;;;;;;;;;;5053948;28;20080;-62
2021/10/10 05:26:55;;;;;;;57.47;38.85;;;;;;;;;;5054437;28;20514;-62
2021/10/10 05:29:41;;;;;;;60.70;39.05;;;;;;;;;;5051855;28;20049;-63
2021/10/10 05:32:26;;;;;;;58.58;37.92;;;;;;;;;;5051869;28;20049;-62
2021/10/10 05:35:11;;;;;;;67.28;40.95;;;;;;;;;;5052203;28;20080;-63
2021/10/10 05:37:57;;;;;;;64.85;42.40;;;;;;;;;;5051692;28;20045;-63
2021/10/10 05:40:42;;;;;;;65.03;41.33;;;;;;;;;;5051969;28;20136;-62
2021/10/10 05:43:27;;;;;;;58.70;37.78;;;;;;;;;;5052058;28;20067;-61
2021/10/10 05:46:12;;;;;;;57.53;38.22;;;;;;;;;;5053860;28;20135;-62
2021/10/10 05:48:58;;;;;;;58.92;37.22;;;;;;;;;;5054114;28;20462;-62
2021/10/10 05:51:45;;;;;;;65.45;39.03;;;;;;;;;;5054097;28;20052;-63
2021/10/10 05:54:32;;;;;;;57.75;37.47;;;;;;;;;;5053626;28;20057;-63
2021/10/10 05:57:21;;;;;;;56.47;36.42;;;;;;;;;;5054103;28;20124;-62
2021/10/10 06:00:07;;;;;;;50.63;34.78;;;;;;;;;;5054007;28;20467;-61
2021/10/10 06:02:52;;;;;;;72.32;36.78;;;;;;;;;;5053760;28;20506;-62
2021/10/10 06:05:39;;;;;;;45.97;27.38;;;;;;;;;;5053670;28;20049;-63
2021/10/10 06:08:25;;;;;;;39.28;26.08;;;;;;;;;;5053238;28;20068;-61
2021/10/10 06:11:10;;;;;;;40.63;25.98;;;;;;;;;;5053491;28;20053;-63
2021/10/10 06:13:57;;;;;;;37.28;26.48;;;;;;;;;;5053364;28;20095;-62
2021/10/10 06:16:42;;;;;;;54.45;33.08;;;;;;;;;;5053692;28;20053;-62
2021/10/10 06:19:27;;;;;;;51.67;32.72;;;;;;;;;;5052398;28;20499;-62
2021/10/10 06:22:12;;;;;;;40.92;29.85;;;;;;;;;;5053584;28;20503;-63
2021/10/10 06:24:57;;;;;;;45.30;31.83;;;;;;;;;;5053075;28;20053;-63
2021/10/10 06:27:43;;;;;;;44.28;29.23;;;;;;;;;;5053322;28;20052;-63
2021/10/10 06:30:29;;;;;;;46.70;30.77;;;;;;;;;;5053107;28;20049;-59
2021/10/10 06:33:14;;;;;;;51.10;33.45;;;;;;;;;;5052920;28;20057;-62
2021/10/10 06:35:59;;;;;;;45.33;31.67;;;;;;;;;;5052478;28;20407;-63
2021/10/10 06:38:45;;;;;;;44.92;32.88;;;;;;;;;;5052820;28;20120;-62
2021/10/10 06:41:30;;;;;;;57.60;37.20;;;;;;;;;;5052788;28;20053;-62
2021/10/10 06:44:15;;;;;;;48.72;35.28;;;;;;;;;;5052440;28;20045;-61
2021/10/10 06:47:01;;;;;;;46.80;34.70;;;;;;;;;;5052529;28;20131;-62
2021/10/10 06:49:46;;;;;;;43.42;31.85;;;;;;;;;;5052694;28;20049;-63
2021/10/10 06:52:32;;;;;;;50.85;35.50;;;;;;;;;;5052777;28;20057;-63
2021/10/10 06:55:17;;;;;;;46.33;33.70;;;;;;;;;;5052139;28;20045;-61
2021/10/10 06:58:02;;;;;;;44.88;32.97;;;;;;;;;;5052553;28;20132;-62
2021/10/10 07:00:47;;;;;;;49.75;32.72;;;;;;;;;;5052007;28;20053;-61
2021/10/10 07:03:33;;;;;;;44.17;33.22;;;;;;;;;;5052545;28;20115;-62
2021/10/10 07:06:18;;;;;;;41.00;32.53;;;;;;;;;;5045206;28;20053;-62
2021/10/10 07:09:03;;;;;;;40.15;31.08;;;;;;;;;;5032385;28;20054;-62
2021/10/10 07:11:49;;;;;;;34.22;28.08;;;;;;;;;;5032217;28;20499;-62
2021/10/10 07:14:34;;;;;;;42.00;33.20;;;;;;;;;;5032223;28;20073;-62
2021/10/10 07:17:24;;;;;;;38.97;30.55;;;;;;;;;;5044432;28;20052;-62
2021/10/10 07:23:30;;;;;;;41.92;28.42;;;;;;;;;;5051261;28;20053;-62
2021/10/10 07:26:15;;;;;;;37.50;29.25;;;;;;;;;;5051675;28;20049;-62
2021/10/10 07:29:02;;;;;;;35.17;29.10;;;;;;;;;;5052065;28;20056;-63
2021/10/10 07:31:47;;;;;;;39.50;28.13;;;;;;;;;;5051520;28;20045;-62
2021/10/10 07:34:32;;;;;;;36.50;27.35;;;;;;;;;;5056793;28;20048;-61
2021/10/10 07:37:18;;;;;;;41.08;28.02;;;;;;;;;;5054798;28;20392;-62
2021/10/10 07:40:03;;;;;;;39.63;29.70;;;;;;;;;;5055258;28;20053;-64
2021/10/10 07:42:49;;;;;;;32.67;26.90;;;;;;;;;;5060488;28;20040;-62
2021/10/10 07:45:41;;;;;;;31.90;27.50;;;;;;;;;;5063398;28;20049;-63
2021/10/10 07:48:26;;;;;;;30.95;24.40;;;;;;;;;;5058630;28;20049;-62
2021/10/10 07:51:11;;;;;;;33.70;25.50;;;;;;;;;;5052014;28;20057;-63
2021/10/10 07:53:56;;;;;;;32.38;26.13;;;;;;;;;;5051715;28;20049;-64
2021/10/10 07:56:43;;;;;;;31.73;26.48;;;;;;;;;;5051749;28;20120;-62
2021/10/10 07:59:28;;;;;;;31.17;25.23;;;;;;;;;;5051325;28;20049;-63
2021/10/10 08:02:14;;;;;;;35.40;25.60;;;;;;;;;;5051541;28;20511;-63
2021/10/10 08:05:00;;;;;;;35.67;26.73;;;;;;;;;;5051372;28;20049;-62
2021/10/10 08:07:45;;;;;;;32.30;26.08;;;;;;;;;;5051229;28;20049;-62
2021/10/10 08:10:30;;;;;;;29.63;24.67;;;;;;;;;;5054126;28;20127;-63
2021/10/10 08:13:15;;;;;;;29.95;25.38;;;;;;;;;;5060058;28;20112;-63
2021/10/10 08:16:01;;;;;;;30.73;24.83;;;;;;;;;;5058356;28;20049;-63
2021/10/10 08:18:46;;;;;;;30.35;24.98;;;;;;;;;;5058869;28;20546;-62
2021/10/10 08:21:31;;;;;;;30.17;25.65;;;;;;;;;;5064454;28;20443;-63
2021/10/10 08:24:18;;;;;;;32.38;25.15;;;;;;;;;;5071145;28;20123;-63
2021/10/10 08:27:03;;;;;;;33.53;25.80;;;;;;;;;;5071552;28;20052;-62
2021/10/10 08:29:49;;;;;;;30.60;25.40;;;;;;;;;;5059259;28;20442;-62
2021/10/10 08:32:34;;;;;;;35.88;24.13;;;;;;;;;;5054343;28;20127;-63
2021/10/10 08:35:19;;;;;;;29.77;24.23;;;;;;;;;;5055010;28;20045;-63
2021/10/10 08:38:05;;;;;;;32.40;27.27;;;;;;;;;;5055187;28;20048;-63
2021/10/10 08:40:50;;;;;;;32.78;24.65;;;;;;;;;;5054823;28;20048;-63
2021/10/10 08:43:35;;;;;;;27.02;23.83;;;;;;;;;;5054925;28;20053;-63
2021/10/10 08:46:24;;;;;;;32.03;25.15;;;;;;;;;;5054842;28;20057;-63
2021/10/10 08:49:09;;;;;;;30.48;25.33;;;;;;;;;;5053783;28;20053;-64
2021/10/10 08:51:54;;;;;;;31.23;24.33;;;;;;;;;;5054786;28;20490;-61
2021/10/10 08:54:39;;;;;;;30.35;25.05;;;;;;;;;;5054572;28;20049;-64
2021/10/10 08:57:25;;;;;;;26.48;23.67;;;;;;;;;;5054543;28;20450;-63
2021/10/10 09:00:15;;;;;;;32.38;25.38;;;;;;;;;;5054892;28;20121;-62
2021/10/10 09:03:01;;;;;;;31.05;26.70;;;;;;;;;;5060092;28;20057;-62
2021/10/10 09:05:49;;;;;;;30.10;24.42;;;;;;;;;;5062304;28;20446;-62
2021/10/10 09:08:40;;;;;;;29.30;25.33;;;;;;;;;;5059766;28;20079;-63
2021/10/10 09:11:28;;;;;;;32.55;24.67;;;;;;;;;;5052096;28;20128;-63
2021/10/10 09:14:14;;;;;;;29.98;25.67;;;;;;;;;;5052927;28;20049;-63
2021/10/10 09:17:09;;;;;;;27.52;24.40;;;;;;;;;;5054157;28;20049;-63
2021/10/10 09:20:03;;;;;;;31.30;25.02;;;;;;;;;;5054343;28;20495;-65
2021/10/10 09:22:48;;;;;;;30.20;26.02;;;;;;;;;;5054210;28;20499;-63
2021/10/10 09:25:33;;;;;;;30.15;24.92;;;;;;;;;;5054097;28;20061;-63
2021/10/10 09:28:19;;;;;;;32.55;27.50;;;;;;;;;;5053867;28;20056;-63
2021/10/10 09:31:05;;;;;;;33.35;27.63;;;;;;;;;;5034136;28;20053;-63
2021/10/10 09:33:52;;;;;;;30.27;26.60;;;;;;;;;;5033894;28;20724;-63
2021/10/10 09:36:37;;;;;;;31.40;27.92;;;;;;;;;;5034127;28;20050;-64
2021/10/10 09:39:26;;;;;;;31.98;27.30;;;;;;;;;;5037345;28;20554;-63
2021/10/10 09:42:11;;;;;;;33.50;26.17;;;;;;;;;;5052794;28;20116;-65
2021/10/10 09:44:56;;;;;;;42.83;27.58;;;;;;;;;;5053232;28;20053;-63
2021/10/10 09:48:08;;;;;;;35.67;27.75;;;;;;;;;;5052251;28;20124;-63
2021/10/10 09:50:53;;;;;;;31.67;26.88;;;;;;;;;;5053775;28;20474;-62
2021/10/10 09:53:38;;;;;;;31.35;26.45;;;;;;;;;;5053357;28;20049;-63
2021/10/10 09:56:24;;;;;;;34.88;27.90;;;;;;;;;;5053171;28;20045;-61
2021/10/10 09:59:23;;;;;;;30.25;26.38;;;;;;;;;;5053631;28;20041;-61
2021/10/10 10:02:08;;;;;;;31.80;25.15;;;;;;;;;;5052492;28;20049;-61
2021/10/10 10:04:53;;;;;;;28.88;25.35;;;;;;;;;;5053037;28;20045;-61
2021/10/10 10:07:39;;;;;;;29.63;26.42;;;;;;;;;;5053271;28;20515;-62
2021/10/10 10:10:25;;;;;;;29.73;24.65;;;;;;;;;;5052345;28;20057;-61
2021/10/10 10:13:10;;;;;;;29.77;25.40;;;;;;;;;;5053419;28;20095;-61
2021/10/10 10:15:55;;;;;;;33.70;26.58;;;;;;;;;;5052864;28;20499;-63
2021/10/10 10:18:44;;;;;;;33.03;26.67;;;;;;;;;;5053135;28;20053;-62
2021/10/10 10:21:29;;;;;;;34.42;26.70;;;;;;;;;;5053191;28;20124;-63
2021/10/10 10:24:15;;;;;;;31.55;26.10;;;;;;;;;;5052936;28;20434;-62
2021/10/10 10:27:00;;;;;;;29.73;24.83;;;;;;;;;;5052886;28;20513;-62
2021/10/10 10:29:46;;;;;;;33.45;25.20;;;;;;;;;;5053135;28;20057;-62
2021/10/10 10:32:32;;;;;;;30.00;24.67;;;;;;;;;;5052177;28;20061;-62
2021/10/10 10:35:18;;;;;;;31.45;25.25;;;;;;;;;;5052430;28;20053;-62
2021/10/10 10:38:03;;;;;;;30.42;24.58;;;;;;;;;;5033106;28;20049;-62
2021/10/10 10:40:49;;;;;;;29.60;24.23;;;;;;;;;;5032772;28;20535;-62
2021/10/10 10:43:37;;;;;;;32.80;26.27;;;;;;;;;;5032660;28;20057;-62
2021/10/10 10:46:22;;;;;;;32.83;25.30;;;;;;;;;;5038760;28;20622;-62
2021/10/10 10:49:07;;;;;;;30.05;24.77;;;;;;;;;;5052458;28;20045;-62
2021/10/10 10:52:12;;;;;;;28.63;25.33;;;;;;;;;;5052771;28;20053;-62
2021/10/10 10:54:57;;;;;;;30.08;24.88;;;;;;;;;;5052982;28;20056;-62
2021/10/10 10:57:45;;;;;;;31.83;26.48;;;;;;;;;;5052580;28;20048;-61
2021/10/10 11:00:32;;;;;;;27.90;23.80;;;;;;;;;;5053571;28;20103;-64
2021/10/10 11:03:18;;;;;;;29.55;24.95;;;;;;;;;;5053435;28;20065;-63
2021/10/10 11:06:23;;;;;;;30.65;26.05;;;;;;;;;;5053325;28;20057;-63
2021/10/10 11:09:08;;;;;;;30.45;25.67;;;;;;;;;;5033462;28;20053;-64
2021/10/10 11:11:58;;;;;;;28.20;24.52;;;;;;;;;;5032987;28;20503;-64
2021/10/10 11:14:43;;;;;;;33.95;26.77;;;;;;;;;;5033411;28;20058;-64
2021/10/10 11:17:28;;;;;;;29.40;23.88;;;;;;;;;;5037803;28;20099;-62
2021/10/10 11:20:14;;;;;;;30.65;24.73;;;;;;;;;;5051064;28;20049;-62
2021/10/10 11:22:59;;;;;;;30.63;25.33;;;;;;;;;;5052137;28;20053;-62
2021/10/10 11:25:47;;;;;;;30.15;23.88;;;;;;;;;;5051738;28;20048;-62
2021/10/10 11:28:40;;;;;;;31.52;25.55;;;;;;;;;;5051591;28;20519;-62
2021/10/10 11:31:26;;;;;;;31.05;25.65;;;;;;;;;;5052214;28;20124;-62
2021/10/10 11:34:12;;;;;;;28.75;24.05;;;;;;;;;;5052133;28;20040;-62
2021/10/10 11:36:58;;;;;;;32.08;24.65;;;;;;;;;;5052010;28;20048;-62
2021/10/10 11:39:44;;;;;;;29.88;24.25;;;;;;;;;;5051538;28;20053;-62
2021/10/10 11:42:29;;;;;;;33.63;24.67;;;;;;;;;;5051779;28;20049;-62
2021/10/10 11:45:21;;;;;;;36.40;26.55;;;;;;;;;;5050800;28;20053;-62
2021/10/10 11:48:09;;;;;;;34.40;26.90;;;;;;;;;;5051404;28;20049;-62
2021/10/10 11:50:54;;;;;;;38.42;27.90;;;;;;;;;;5052056;28;20049;-62
2021/10/10 11:53:43;;;;;;;34.55;26.23;;;;;;;;;;5051686;28;20120;-62
2021/10/10 11:56:29;;;;;;;32.13;27.05;;;;;;;;;;5051729;28;20049;-62
2021/10/10 11:59:14;;;;;;;33.60;26.05;;;;;;;;;;5051739;28;20053;-62
2021/10/10 12:01:59;;;;;;;34.45;26.25;;;;;;;;;;5051759;28;20045;-62
2021/10/10 12:04:45;;;;;;;42.50;27.80;;;;;;;;;;5051423;28;20053;-62
2021/10/10 12:07:30;;;;;;;38.33;27.75;;;;;;;;;;5054543;28;20634;-62
2021/10/10 12:10:18;;;;;;;36.45;27.67;;;;;;;;;;5048513;28;20057;-62
2021/10/10 12:13:04;;;;;;;32.85;26.30;;;;;;;;;;5035610;28;20062;-62
2021/10/10 12:15:59;;;;;;;33.53;26.25;;;;;;;;;;5035164;28;20495;-62
2021/10/10 12:18:44;;;;;;;34.03;26.27;;;;;;;;;;5035529;28;20112;-63
2021/10/10 12:21:31;;;;;;;34.10;27.17;;;;;;;;;;5055498;28;20049;-62
2021/10/10 12:24:18;;;;;;;35.75;27.15;;;;;;;;;;5055234;28;20049;-62
2021/10/10 12:27:03;;;;;;;37.65;27.85;;;;;;;;;;5055614;28;20450;-61
2021/10/10 12:29:49;;;;;;;33.00;26.52;;;;;;;;;;5055103;28;20045;-62
2021/10/10 12:32:34;;;;;;;35.55;26.83;;;;;;;;;;5055097;28;20095;-62
2021/10/10 12:35:19;;;;;;;33.97;27.98;;;;;;;;;;5054991;28;20057;-62
2021/10/10 12:38:05;;;;;;;34.60;28.75;;;;;;;;;;5054799;28;20512;-62
2021/10/10 12:40:51;;;;;;;34.88;28.33;;;;;;;;;;5054870;28;20049;-62
2021/10/10 12:43:41;;;;;;;34.85;28.85;;;;;;;;;;5054994;28;20128;-63
2021/10/10 12:46:27;;;;;;;39.38;29.40;;;;;;;;;;5055014;28;20056;-62
2021/10/10 12:49:12;;;;;;;45.40;31.85;;;;;;;;;;5054806;28;20104;-62
2021/10/10 12:51:57;;;;;;;40.58;30.42;;;;;;;;;;5054584;28;20546;-62
2021/10/10 12:54:45;;;;;;;39.78;30.50;;;;;;;;;;5054546;28;20407;-62
2021/10/10 12:57:30;;;;;;;45.60;32.20;;;;;;;;;;5054502;28;20053;-62
2021/10/10 13:00:18;;;;;;;35.97;29.35;;;;;;;;;;5054922;28;20049;-62
2021/10/10 13:03:04;;;;;;;36.58;28.02;;;;;;;;;;5034728;28;20053;-62
2021/10/10 13:05:49;;;;;;;40.75;30.33;;;;;;;;;;5034413;28;20053;-62
2021/10/10 13:08:50;;;;;;;37.58;30.08;;;;;;;;;;5034560;28;20057;-62
2021/10/10 13:11:35;;;;;;;35.85;28.20;;;;;;;;;;5041843;28;20503;-62
2021/10/10 13:14:20;;;;;;;32.38;28.50;;;;;;;;;;5054324;28;20053;-62
2021/10/10 13:17:06;;;;;;;33.97;28.00;;;;;;;;;;5053967;28;20049;-62
2021/10/10 13:19:51;;;;;;;31.40;25.58;;;;;;;;;;5054181;28;20045;-62
2021/10/10 13:22:37;;;;;;;35.55;26.70;;;;;;;;;;5054309;28;20052;-62
2021/10/10 13:25:22;;;;;;;36.03;25.75;;;;;;;;;;5053118;28;20119;-63
2021/10/10 13:28:07;;;;;;;31.95;26.80;;;;;;;;;;5054204;28;20056;-62
2021/10/10 13:30:58;;;;;;;32.53;25.90;;;;;;;;;;5054090;28;20061;-62
2021/10/10 13:33:43;;;;;;;27.88;24.67;;;;;;;;;;5053771;28;20057;-64
2021/10/10 13:36:28;;;;;;;36.08;27.23;;;;;;;;;;5053980;28;20049;-62
2021/10/10 13:39:14;;;;;;;30.60;25.75;;;;;;;;;;5054076;28;20790;-63
2021/10/10 13:41:59;;;;;;;31.55;27.27;;;;;;;;;;5053808;28;20128;-62
2021/10/10 13:44:44;;;;;;;31.08;26.63;;;;;;;;;;5053666;28;20052;-62
2021/10/10 13:47:29;;;;;;;31.95;27.88;;;;;;;;;;5053855;28;20457;-62
2021/10/10 13:50:15;;;;;;;33.85;26.50;;;;;;;;;;5053896;28;20060;-62
2021/10/10 13:53:01;;;;;;;30.83;26.98;;;;;;;;;;5053477;28;20057;-62
2021/10/10 13:55:46;;;;;;;29.48;24.77;;;;;;;;;;5053315;28;20053;-62
2021/10/10 13:58:31;;;;;;;31.38;25.52;;;;;;;;;;5053661;28;20053;-62
2021/10/10 14:01:17;;;;;;;35.53;26.33;;;;;;;;;;5053626;28;20056;-62
2021/10/10 14:04:02;;;;;;;30.73;27.42;;;;;;;;;;5052951;28;20053;-63
2021/10/10 14:06:47;;;;;;;30.80;26.50;;;;;;;;;;5053354;28;20411;-63
2021/10/10 14:09:33;;;;;;;29.67;26.33;;;;;;;;;;5053413;28;20132;-62
2021/10/10 14:12:18;;;;;;;29.75;24.25;;;;;;;;;;5053259;28;20492;-63
2021/10/10 14:15:03;;;;;;;32.80;25.88;;;;;;;;;;5052979;28;20120;-63
2021/10/10 14:17:49;;;;;;;30.23;25.42;;;;;;;;;;5053115;28;20053;-63
2021/10/10 14:20:34;;;;;;;31.67;25.45;;;;;;;;;;5053085;28;20132;-63
2021/10/10 14:23:19;;;;;;;33.28;27.35;;;;;;;;;;5052980;28;20484;-63
2021/10/10 14:26:05;;;;;;;28.38;25.33;;;;;;;;;;5053226;28;20056;-63
2021/10/10 14:28:50;;;;;;;31.80;23.45;;;;;;;;;;5052473;28;20559;-62
2021/10/10 14:31:35;;;;;;;29.55;24.08;;;;;;;;;;5053192;28;20057;-63
2021/10/10 14:34:21;;;;;;;26.38;23.52;;;;;;;;;;5052590;28;20052;-62
2021/10/10 14:37:06;;;;;;;28.00;23.10;;;;;;;;;;5052771;28;20057;-64
2021/10/10 14:39:55;;;;;;;26.52;22.77;;;;;;;;;;5052644;28;20052;-63
2021/10/10 14:42:44;;;;;;;28.95;23.10;;;;;;;;;;5053593;28;20138;-62
2021/10/10 14:45:34;;;;;;;29.33;23.30;;;;;;;;;;5053387;28;20053;-63
2021/10/10 14:48:19;;;;;;;28.63;24.60;;;;;;;;;;5053536;28;20499;-63
2021/10/10 14:51:04;;;;;;;30.27;24.58;;;;;;;;;;5054005;28;20052;-62
2021/10/10 14:53:50;;;;;;;29.20;23.95;;;;;;;;;;5053367;28;20566;-63
2021/10/10 14:56:36;;;;;;;31.55;26.15;;;;;;;;;;5053367;28;20135;-62
2021/10/10 14:59:21;;;;;;;32.17;25.60;;;;;;;;;;5053477;28;20426;-62
2021/10/10 15:02:06;;;;;;;30.77;23.80;;;;;;;;;;5053189;28;20056;-63
2021/10/10 15:04:51;;;;;;;28.88;25.80;;;;;;;;;;5052152;28;20461;-62
2021/10/10 15:07:40;;;;;;;30.60;25.15;;;;;;;;;;5053680;28;20053;-62
2021/10/10 15:10:26;;;;;;;29.13;25.70;;;;;;;;;;5054403;28;20053;-64
2021/10/10 15:13:11;;;;;;;31.60;27.20;;;;;;;;;;5059594;28;20052;-65
2021/10/10 15:15:57;;;;;;;32.15;27.67;;;;;;;;;;5060229;28;20045;-66
2021/10/10 15:18:43;;;;;;;34.92;28.25;;;;;;;;;;5052675;28;20053;-65
2021/10/10 15:21:28;;;;;;;32.20;26.55;;;;;;;;;;5051909;28;20100;-65
2021/10/10 15:24:13;;;;;;;31.70;27.38;;;;;;;;;;5051030;28;20049;-65
2021/10/10 15:26:58;;;;;;;30.92;26.10;;;;;;;;;;5051846;28;20056;-65
2021/10/10 15:29:43;;;;;;;32.42;26.98;;;;;;;;;;5052239;28;20128;-65
2021/10/10 15:32:29;;;;;;;28.90;25.30;;;;;;;;;;5052156;28;20060;-65
2021/10/10 15:35:14;;;;;;;35.25;27.02;;;;;;;;;;5051635;28;20048;-65
2021/10/10 15:37:59;;;;;;;34.58;27.05;;;;;;;;;;5051888;28;20049;-65
2021/10/10 15:40:45;;;;;;;33.65;27.45;;;;;;;;;;5051134;28;20057;-65
2021/10/10 15:43:31;;;;;;;34.70;28.15;;;;;;;;;;5059111;28;20503;-65
2021/10/10 15:46:16;;;;;;;34.08;28.40;;;;;;;;;;5046074;28;20052;-65
2021/10/10 15:49:01;;;;;;;34.35;27.35;;;;;;;;;;5047398;28;20053;-65
2021/10/10 15:51:48;;;;;;;30.77;27.50;;;;;;;;;;5050619;28;20048;-65
2021/10/10 15:54:34;;;;;;;34.15;27.75;;;;;;;;;;5054893;28;20080;-65
2021/10/10 15:57:19;;;;;;;34.20;27.98;;;;;;;;;;5051728;28;20198;-65
2021/10/10 16:00:05;;;;;;;34.80;27.17;;;;;;;;;;5050599;28;20053;-65
2021/10/10 16:02:50;;;;;;;34.78;28.48;;;;;;;;;;5050532;28;20081;-65
2021/10/10 16:05:36;;;;;;;30.05;26.67;;;;;;;;;;5060334;28;20129;-65
2021/10/10 16:08:22;;;;;;;35.40;27.17;;;;;;;;;;5050341;28;20049;-65